createdAt,value
2022-10-10T00:01:08.777Z,18.50
2022-10-10T00:03:56.287Z,18.50
2022-10-10T00:06:43.732Z,18.20
2022-10-10T00:09:31.432Z,18.30
2022-10-10T00:12:18.875Z,18.40
2022-10-10T00:15:07.756Z,18.40
2022-10-10T00:17:55.186Z,18.40
2022-10-10T00:20:42.770Z,18.30
2022-10-10T00:23:30.455Z,18.20
2022-10-10T00:26:19.361Z,18.30
2022-10-10T00:29:06.996Z,18.10
2022-10-10T00:31:54.466Z,18.00
2022-10-10T00:34:41.881Z,17.80
2022-10-10T00:37:29.391Z,17.70
2022-10-10T00:40:16.891Z,17.60
2022-10-10T00:43:04.461Z,17.50
2022-10-10T00:45:52.815Z,17.40
2022-10-10T00:48:44.730Z,17.20
2022-10-10T00:51:32.692Z,17.20
2022-10-10T00:54:24.481Z,16.90
2022-10-10T00:57:14.891Z,16.80
2022-10-10T01:00:05.478Z,16.60
2022-10-10T01:02:53.243Z,16.70
2022-10-10T01:05:43.616Z,16.50
2022-10-10T01:08:31.155Z,16.40
2022-10-10T01:11:48.725Z,16.30
2022-10-10T01:14:42.632Z,16.20
2022-10-10T01:17:52.680Z,16.20
2022-10-10T01:21:21.150Z,16.00
2022-10-10T01:25:00.890Z,16.00
2022-10-10T01:27:59.600Z,15.90
2022-10-10T01:30:49.060Z,15.80
2022-10-10T01:34:08.720Z,15.80
2022-10-10T01:37:28.799Z,15.80
2022-10-10T01:40:49.220Z,15.90
2022-10-10T01:43:38.031Z,15.80
2022-10-10T01:46:26.377Z,15.80
2022-10-10T01:49:14.085Z,15.80
2022-10-10T01:52:32.273Z,15.80
2022-10-10T01:56:03.941Z,15.90
2022-10-10T01:59:26.492Z,16.00
2022-10-10T02:02:54.538Z,16.20
2022-10-10T02:06:03.900Z,16.20
2022-10-10T02:09:28.985Z,16.30
2022-10-10T02:12:17.600Z,16.20
2022-10-10T02:15:16.650Z,16.60
2022-10-10T02:18:08.361Z,16.80
2022-10-10T02:20:57.620Z,17.00
2022-10-10T02:23:50.375Z,17.20
2022-10-10T02:26:41.527Z,17.20
2022-10-10T02:29:37.539Z,17.40
2022-10-10T02:32:49.837Z,17.50
2022-10-10T02:35:45.750Z,17.50
2022-10-10T02:38:33.447Z,17.40
2022-10-10T02:41:23.166Z,17.50
2022-10-10T02:44:14.555Z,17.60
2022-10-10T02:47:02.162Z,17.60
2022-10-10T02:49:53.491Z,17.70
2022-10-10T02:52:41.200Z,17.60
2022-10-10T02:55:28.715Z,17.60
2022-10-10T02:58:16.368Z,17.60
2022-10-10T03:01:04.081Z,17.60
2022-10-10T03:03:51.690Z,17.60
2022-10-10T03:06:39.228Z,17.50
2022-10-10T03:09:26.740Z,17.50
2022-10-10T03:12:14.255Z,17.60
2022-10-10T03:15:02.032Z,17.60
2022-10-10T03:17:49.595Z,17.40
2022-10-10T03:20:37.271Z,17.40
2022-10-10T03:23:26.303Z,17.50
2022-10-10T03:26:13.935Z,17.50
2022-10-10T03:29:03.976Z,17.50
2022-10-10T03:31:51.716Z,17.40
2022-10-10T03:34:39.240Z,17.30
2022-10-10T03:37:26.980Z,17.30
2022-10-10T03:40:14.571Z,17.30
2022-10-10T03:43:01.970Z,17.30
2022-10-10T03:45:49.554Z,17.20
2022-10-10T03:48:37.061Z,17.10
2022-10-10T03:51:24.646Z,17.00
2022-10-10T03:54:12.280Z,16.80
2022-10-10T03:56:59.742Z,16.70
2022-10-10T03:59:47.355Z,16.70
2022-10-10T04:02:34.915Z,16.60
2022-10-10T04:05:22.602Z,16.20
2022-10-10T04:08:10.237Z,16.30
2022-10-10T04:10:58.075Z,16.20
2022-10-10T04:13:45.760Z,16.10
2022-10-10T04:16:33.346Z,16.10
2022-10-10T04:19:20.835Z,16.00
2022-10-10T04:22:11.060Z,16.10
2022-10-10T04:24:59.040Z,16.00
2022-10-10T04:27:46.707Z,16.00
2022-10-10T04:30:35.255Z,15.90
2022-10-10T04:33:23.035Z,15.70
2022-10-10T04:36:10.825Z,15.60
2022-10-10T04:38:59.522Z,15.60
2022-10-10T04:41:51.050Z,15.60
2022-10-10T04:44:38.561Z,15.50
2022-10-10T04:47:26.110Z,15.60
2022-10-10T04:50:13.681Z,15.60
2022-10-10T04:53:01.297Z,15.40
2022-10-10T04:55:51.570Z,15.40
2022-10-10T04:58:39.190Z,15.30
2022-10-10T05:01:26.728Z,15.40
2022-10-10T05:04:14.706Z,15.30
2022-10-10T05:07:02.241Z,15.20
2022-10-10T05:09:49.760Z,15.00
2022-10-10T05:12:37.418Z,15.10
2022-10-10T05:15:25.045Z,15.20
2022-10-10T05:18:12.641Z,15.10
2022-10-10T05:21:03.607Z,15.10
2022-10-10T05:23:51.540Z,15.00
2022-10-10T05:26:43.078Z,14.90
2022-10-10T05:29:30.847Z,15.00
2022-10-10T05:32:18.655Z,15.00
2022-10-10T05:35:07.640Z,15.10
2022-10-10T05:37:55.511Z,15.10
2022-10-10T05:40:43.571Z,15.40
2022-10-10T05:43:31.206Z,15.30
2022-10-10T05:46:20.460Z,15.30
2022-10-10T05:49:07.921Z,15.30
2022-10-10T05:51:55.352Z,15.40
2022-10-10T05:54:42.810Z,15.30
2022-10-10T05:57:30.404Z,15.40
2022-10-10T06:00:18.385Z,15.50
2022-10-10T06:03:06.442Z,15.60
2022-10-10T06:05:53.915Z,15.70
2022-10-10T06:08:41.355Z,15.90
2022-10-10T06:11:29.360Z,16.10
2022-10-10T06:14:16.817Z,16.20
2022-10-10T06:17:04.723Z,16.30
2022-10-10T06:19:52.207Z,16.40
2022-10-10T06:22:39.862Z,16.70
2022-10-10T06:25:40.038Z,16.70
2022-10-10T06:28:28.894Z,16.90
2022-10-10T06:31:17.325Z,17.00
2022-10-10T06:34:05.755Z,17.30
2022-10-10T06:36:53.386Z,17.50
2022-10-10T06:39:41.369Z,17.60
2022-10-10T06:42:28.985Z,17.80
2022-10-10T06:45:16.683Z,18.00
2022-10-10T06:48:05.007Z,18.10
2022-10-10T06:51:00.921Z,18.30
2022-10-10T06:53:48.819Z,18.30
2022-10-10T06:56:36.467Z,18.40
2022-10-10T06:59:23.936Z,18.60
2022-10-10T07:02:14.241Z,18.70
2022-10-10T07:05:01.686Z,18.70
2022-10-10T07:07:52.370Z,18.90
2022-10-10T07:10:39.950Z,19.00
2022-10-10T07:13:27.550Z,18.70
2022-10-10T07:16:15.046Z,19.00
2022-10-10T07:19:02.771Z,19.10
2022-10-10T07:21:50.797Z,19.30
2022-10-10T07:24:38.396Z,19.30
2022-10-10T07:27:25.908Z,19.50
2022-10-10T07:30:14.255Z,19.60
2022-10-10T07:33:04.852Z,19.80
2022-10-10T07:35:55.406Z,19.90
2022-10-10T07:38:42.813Z,20.10
2022-10-10T07:41:30.230Z,20.30
2022-10-10T07:44:19.096Z,20.40
2022-10-10T07:47:06.814Z,20.60
2022-10-10T07:49:54.356Z,20.60
2022-10-10T07:52:42.055Z,20.90
2022-10-10T07:55:29.535Z,21.00
2022-10-10T07:58:17.311Z,21.30
2022-10-10T08:01:08.251Z,21.20
2022-10-10T08:03:58.781Z,21.30
2022-10-10T08:06:46.480Z,21.70
2022-10-10T08:09:33.948Z,21.60
2022-10-10T08:12:21.551Z,21.50
2022-10-10T08:15:09.974Z,21.70
2022-10-10T08:17:57.540Z,21.80
2022-10-10T08:20:45.485Z,22.10
2022-10-10T08:23:33.915Z,22.30
2022-10-10T08:26:21.605Z,22.40
2022-10-10T08:29:09.186Z,22.60
2022-10-10T08:31:56.806Z,22.70
2022-10-10T08:34:44.686Z,22.70
2022-10-10T08:37:36.568Z,22.90
2022-10-10T08:40:28.830Z,22.80
2022-10-10T08:43:49.503Z,23.00
2022-10-10T08:46:42.422Z,23.30
2022-10-10T08:49:48.576Z,23.30
2022-10-10T08:52:49.005Z,23.60
2022-10-10T08:55:44.074Z,23.90
2022-10-10T08:58:41.610Z,24.20
2022-10-10T09:01:36.131Z,24.10
2022-10-10T09:04:43.628Z,24.50
2022-10-10T09:07:50.795Z,24.80
2022-10-10T09:11:30.131Z,24.10
2022-10-10T09:14:39.980Z,24.10
2022-10-10T09:17:50.209Z,24.60
2022-10-10T09:21:08.905Z,24.60
2022-10-10T09:24:06.050Z,25.00
2022-10-10T09:27:06.193Z,25.10
2022-10-10T09:30:15.460Z,25.40
2022-10-10T09:33:35.871Z,25.50
2022-10-10T09:36:31.908Z,25.50
2022-10-10T09:39:44.446Z,25.20
2022-10-10T09:42:40.312Z,25.20
2022-10-10T09:45:35.706Z,24.70
2022-10-10T09:48:38.185Z,24.10
2022-10-10T09:51:25.710Z,24.40
2022-10-10T09:54:18.543Z,24.80
2022-10-10T09:57:06.408Z,25.30
2022-10-10T09:59:54.455Z,25.50
2022-10-10T10:02:42.056Z,25.60
2022-10-10T10:05:30.117Z,25.50
2022-10-10T10:08:28.222Z,25.60
2022-10-10T10:11:42.835Z,25.90
2022-10-10T10:14:36.806Z,26.30
2022-10-10T10:17:24.915Z,26.40
2022-10-10T10:20:32.381Z,26.80
2022-10-10T10:23:31.795Z,27.00
2022-10-10T10:26:46.144Z,27.30
2022-10-10T10:29:34.453Z,27.10
2022-10-10T10:32:40.345Z,27.20
2022-10-10T10:35:58.761Z,27.40
2022-10-10T10:39:28.456Z,27.40
2022-10-10T10:43:09.939Z,27.50
2022-10-10T10:46:41.784Z,27.40
2022-10-10T10:49:34.640Z,27.50
2022-10-10T10:52:49.033Z,27.60
2022-10-10T10:55:39.573Z,27.70
2022-10-10T11:03:21.166Z,27.70
2022-10-10T11:06:54.201Z,27.80
2022-10-10T11:10:20.655Z,27.50
2022-10-10T11:13:34.526Z,27.50
2022-10-10T11:16:49.294Z,27.60
2022-10-10T11:20:10.039Z,27.70
2022-10-10T11:23:39.640Z,28.10
2022-10-10T11:26:50.740Z,28.20
2022-10-10T11:30:03.527Z,27.80
2022-10-10T11:32:57.572Z,27.80
2022-10-10T11:36:18.228Z,28.20
2022-10-10T11:39:24.126Z,27.90
2022-10-10T11:42:29.800Z,28.10
2022-10-10T11:45:27.426Z,28.00
2022-10-10T11:48:37.671Z,28.20
2022-10-10T11:52:09.443Z,28.20
2022-10-10T11:55:23.711Z,27.90
2022-10-10T11:58:11.505Z,27.50
2022-10-10T12:01:25.400Z,27.90
2022-10-10T12:04:13.515Z,28.20
2022-10-10T12:07:39.775Z,28.30
2022-10-10T12:10:37.526Z,28.30
2022-10-10T12:13:47.791Z,28.50
2022-10-10T12:16:38.141Z,28.50
2022-10-10T12:19:29.137Z,28.60
2022-10-10T12:22:28.840Z,28.70
2022-10-10T12:25:42.411Z,28.80
2022-10-10T12:28:53.844Z,28.80
2022-10-10T12:31:41.385Z,29.00
2022-10-10T12:34:49.571Z,29.10
2022-10-10T12:37:37.056Z,29.00
2022-10-10T12:40:24.510Z,29.10
2022-10-10T12:43:26.348Z,29.00
2022-10-10T12:46:28.175Z,29.30
2022-10-10T12:49:24.471Z,28.90
2022-10-10T12:52:21.995Z,29.10
2022-10-10T12:55:26.155Z,29.20
2022-10-10T12:58:27.452Z,29.50
2022-10-10T13:01:35.467Z,29.40
2022-10-10T13:04:25.921Z,29.30
2022-10-10T13:07:20.731Z,29.60
2022-10-10T13:10:26.606Z,29.50
2022-10-10T13:13:14.031Z,28.80
2022-10-10T13:16:10.051Z,29.10
2022-10-10T13:18:59.791Z,29.00
2022-10-10T13:21:49.615Z,29.30
2022-10-10T13:24:37.135Z,29.40
2022-10-10T13:27:33.748Z,29.50
2022-10-10T13:30:25.249Z,29.60
2022-10-10T13:33:20.536Z,29.70
2022-10-10T13:36:19.839Z,29.80
2022-10-10T13:39:10.716Z,30.00
2022-10-10T13:41:59.142Z,29.70
2022-10-10T13:44:53.364Z,29.70
2022-10-10T13:47:46.749Z,29.70
2022-10-10T13:51:13.403Z,29.60
2022-10-10T13:54:01.450Z,29.70
2022-10-10T13:56:48.979Z,29.80
2022-10-10T13:59:36.980Z,29.70
2022-10-10T14:02:32.498Z,29.70
2022-10-10T14:05:30.850Z,29.60
2022-10-10T14:08:28.924Z,29.60
2022-10-10T14:11:22.583Z,29.50
2022-10-10T14:14:23.772Z,29.50
2022-10-10T14:17:12.230Z,29.50
2022-10-10T14:19:59.710Z,29.40
2022-10-10T14:22:47.146Z,29.40
2022-10-10T14:25:36.490Z,29.40
2022-10-10T14:28:30.978Z,29.30
2022-10-10T14:31:18.531Z,29.30
2022-10-10T14:34:05.995Z,28.90
2022-10-10T14:36:53.662Z,28.60
2022-10-10T14:39:41.082Z,28.80
2022-10-10T14:42:28.524Z,28.50
2022-10-10T14:45:18.725Z,28.30
2022-10-10T14:48:06.718Z,28.30
2022-10-10T14:50:54.191Z,28.10
2022-10-10T14:53:41.695Z,28.00
2022-10-10T14:57:07.043Z,28.00
2022-10-10T14:59:46.328Z,27.90
2022-10-10T15:02:40.777Z,27.60
2022-10-10T15:05:30.868Z,27.70
2022-10-10T15:08:19.624Z,27.70
2022-10-10T15:11:07.239Z,27.70
2022-10-10T15:13:54.611Z,27.60
2022-10-10T15:16:42.120Z,27.50
2022-10-10T15:19:29.600Z,27.40
2022-10-10T15:22:17.026Z,27.40
2022-10-10T15:25:07.030Z,27.30
2022-10-10T15:27:55.200Z,27.20
2022-10-10T15:30:46.525Z,27.10
2022-10-10T15:33:34.367Z,27.00
2022-10-10T15:36:21.994Z,27.10
2022-10-10T15:39:09.391Z,27.10
2022-10-10T15:41:57.326Z,27.10
2022-10-10T15:44:47.791Z,27.10
2022-10-10T15:47:42.894Z,27.00
2022-10-10T15:50:36.085Z,26.90
2022-10-10T15:53:23.560Z,26.80
2022-10-10T15:56:16.287Z,26.60
2022-10-10T15:59:04.527Z,26.50
2022-10-10T16:01:52.720Z,26.30
2022-10-10T16:04:40.524Z,26.10
2022-10-10T16:07:30.419Z,26.00
2022-10-10T16:10:18.810Z,25.80
2022-10-10T16:13:07.490Z,25.60
2022-10-10T16:16:03.312Z,25.40
2022-10-10T16:18:51.362Z,25.20
2022-10-10T16:21:38.966Z,25.10
2022-10-10T16:24:26.446Z,24.90
2022-10-10T16:27:13.886Z,24.70
2022-10-10T16:30:01.300Z,24.50
2022-10-10T16:32:49.420Z,24.40
2022-10-10T16:35:37.692Z,24.30
2022-10-10T16:38:25.310Z,24.20
2022-10-10T16:41:35.599Z,24.10
2022-10-10T16:44:25.325Z,24.00
2022-10-10T16:47:12.744Z,23.90
2022-10-10T16:50:00.236Z,23.80
2022-10-10T16:52:47.711Z,23.70
2022-10-10T16:55:40.605Z,23.60
2022-10-10T16:58:29.770Z,23.50
2022-10-10T17:01:21.584Z,23.40
2022-10-10T17:04:09.035Z,23.30
2022-10-10T17:06:56.450Z,23.20
2022-10-10T17:09:43.875Z,23.20
2022-10-10T17:12:31.397Z,23.20
2022-10-10T17:15:19.250Z,23.00
2022-10-10T17:18:09.696Z,23.10
2022-10-10T17:20:57.491Z,23.00
2022-10-10T17:23:45.350Z,22.90
2022-10-10T17:26:32.875Z,22.90
2022-10-10T17:29:20.449Z,22.80
2022-10-10T17:32:07.945Z,22.70
2022-10-10T17:34:55.806Z,22.70
2022-10-10T17:37:43.641Z,22.70
2022-10-10T17:40:31.119Z,22.60
2022-10-10T17:43:18.556Z,22.60
2022-10-10T17:46:34.272Z,22.50
2022-10-10T17:49:22.831Z,22.50
2022-10-10T17:52:10.295Z,22.50
2022-10-10T17:54:57.785Z,22.50
2022-10-10T17:57:49.084Z,22.40
2022-10-10T18:00:40.802Z,22.40
2022-10-10T18:03:28.977Z,22.30
2022-10-10T18:06:20.688Z,22.20
2022-10-10T18:09:08.277Z,22.20
2022-10-10T18:11:56.029Z,22.10
2022-10-10T18:14:43.673Z,22.10
2022-10-10T18:17:31.244Z,22.00
2022-10-10T18:20:18.751Z,22.00
2022-10-10T18:23:06.226Z,22.10
2022-10-10T18:26:04.060Z,22.00
2022-10-10T18:28:55.673Z,21.90
2022-10-10T18:31:44.205Z,21.90
2022-10-10T18:34:31.813Z,21.80
2022-10-10T18:37:19.265Z,21.80
2022-10-10T18:40:07.568Z,21.80
2022-10-10T18:42:55.200Z,21.70
2022-10-10T18:45:42.621Z,21.70
2022-10-10T18:48:30.943Z,21.70
2022-10-10T18:51:24.183Z,21.60
2022-10-10T18:54:18.055Z,21.60
2022-10-10T18:57:05.617Z,21.60
2022-10-10T18:59:56.095Z,21.60
2022-10-10T19:02:43.530Z,21.60
2022-10-10T19:05:30.967Z,21.60
2022-10-10T19:08:18.536Z,21.60
2022-10-10T19:11:08.380Z,21.60
2022-10-10T19:13:59.625Z,21.50
2022-10-10T19:16:48.410Z,21.40
2022-10-10T19:19:36.965Z,21.50
2022-10-10T19:22:24.429Z,21.40
2022-10-10T19:25:11.892Z,21.40
2022-10-10T19:27:59.366Z,21.40
2022-10-10T19:30:47.246Z,21.50
2022-10-10T19:33:35.996Z,21.40
2022-10-10T19:36:23.645Z,21.40
2022-10-10T19:39:11.160Z,21.30
2022-10-10T19:41:58.915Z,21.30
2022-10-10T19:44:47.729Z,21.40
2022-10-10T19:47:35.277Z,21.30
2022-10-10T19:50:22.736Z,21.30
2022-10-10T19:53:12.979Z,21.20
2022-10-10T19:56:05.258Z,21.30
2022-10-10T19:58:56.430Z,21.20
2022-10-10T20:01:43.927Z,21.20
2022-10-10T20:04:31.475Z,21.20
2022-10-10T20:07:18.940Z,21.30
2022-10-10T20:10:07.045Z,21.30
2022-10-10T20:12:55.185Z,21.30
2022-10-10T20:15:45.056Z,21.40
2022-10-10T20:18:35.401Z,21.30
2022-10-10T20:21:31.686Z,21.40
2022-10-10T20:24:19.718Z,21.40
2022-10-10T20:27:07.842Z,21.40
2022-10-10T20:29:55.335Z,21.40
2022-10-10T20:32:42.705Z,21.40
2022-10-10T20:35:30.115Z,21.50
2022-10-10T20:38:17.580Z,21.30
2022-10-10T20:41:07.090Z,21.40
2022-10-10T20:44:01.379Z,21.70
2022-10-10T20:46:48.907Z,21.70
2022-10-10T20:49:36.450Z,21.70
2022-10-10T20:52:23.951Z,21.70
2022-10-10T20:55:11.430Z,21.80
2022-10-10T20:57:59.110Z,21.80
2022-10-10T21:00:46.605Z,21.80
2022-10-10T21:03:34.945Z,21.80
2022-10-10T21:06:27.521Z,21.80
2022-10-10T21:09:15.832Z,21.80
2022-10-10T21:12:03.358Z,21.80
2022-10-10T21:14:51.895Z,21.70
2022-10-10T21:17:39.397Z,21.70
2022-10-10T21:20:26.826Z,21.80
2022-10-10T21:23:14.621Z,21.70
2022-10-10T21:26:18.494Z,21.70
2022-10-10T21:29:05.966Z,21.70
2022-10-10T21:31:53.810Z,21.60
2022-10-10T21:34:41.200Z,21.60
2022-10-10T21:37:29.656Z,21.60
2022-10-10T21:40:17.236Z,21.60
2022-10-10T21:43:05.140Z,21.50
2022-10-10T21:45:52.561Z,21.50
2022-10-10T21:48:41.110Z,21.40
2022-10-10T21:51:29.415Z,21.40
2022-10-10T21:54:16.915Z,21.40
2022-10-10T21:57:04.326Z,21.30
2022-10-10T21:59:52.661Z,21.30
2022-10-10T22:02:42.082Z,21.30
2022-10-10T22:05:29.562Z,21.30
2022-10-10T22:08:16.967Z,21.30
2022-10-10T22:11:21.123Z,21.30
2022-10-10T22:14:08.551Z,21.30
2022-10-10T22:16:56.004Z,21.20
2022-10-10T22:19:43.532Z,21.20
2022-10-10T22:22:31.175Z,21.20
2022-10-10T22:25:19.115Z,21.20
2022-10-10T22:28:06.654Z,21.00
2022-10-10T22:30:54.733Z,21.00
2022-10-10T22:33:43.310Z,20.90
2022-10-10T22:36:31.216Z,20.90
2022-10-10T22:39:18.687Z,20.90
2022-10-10T22:42:06.146Z,20.90
2022-10-10T22:44:53.616Z,20.90
2022-10-10T22:47:41.030Z,20.90
2022-10-10T22:50:28.606Z,20.90
2022-10-10T22:53:16.015Z,20.80
2022-10-10T22:56:04.437Z,20.80
2022-10-10T22:58:52.590Z,20.80
2022-10-10T23:01:40.044Z,20.80
2022-10-10T23:04:27.605Z,20.80
2022-10-10T23:07:15.925Z,20.70
2022-10-10T23:10:04.912Z,20.70
2022-10-10T23:12:52.393Z,20.70
2022-10-10T23:15:39.976Z,20.70
2022-10-10T23:18:29.410Z,20.80
2022-10-10T23:21:17.197Z,20.70
2022-10-10T23:24:05.220Z,20.80
2022-10-10T23:26:52.635Z,20.80
2022-10-10T23:29:40.300Z,20.80
2022-10-10T23:32:29.549Z,20.70
2022-10-10T23:35:17.100Z,20.70
2022-10-10T23:38:05.590Z,20.70
2022-10-10T23:40:53.240Z,20.80
2022-10-10T23:43:40.659Z,20.70
2022-10-10T23:46:28.120Z,20.70
2022-10-10T23:49:15.539Z,20.80
2022-10-10T23:52:03.155Z,20.80
2022-10-10T23:54:50.650Z,20.80
2022-10-10T23:57:38.141Z,20.90
